sensor_id;sensor_type;location;lat;lon;timestamp;temperature;humidity
12130;DHT22;6128;59.340;18.040;2023-04-01T00:01:13;-2.70;99.90
12130;DHT22;6128;59.340;18.040;2023-04-01T00:03:40;-2.70;99.90
12130;DHT22;6128;59.340;18.040;2023-04-01T00:06:09;-2.70;99.90
12130;DHT22;6128;59.340;18.040;2023-04-01T00:08:38;-2.80;99.90
12130;DHT22;6128;59.340;18.040;2023-04-01T00:11:05;-2.80;99.90
12130;DHT22;6128;59.340;18.040;2023-04-01T00:13:32;-2.80;99.90
12130;DHT22;6128;59.340;18.040;2023-04-01T00:16:00;-2.80;99.90
12130;DHT22;6128;59.340;18.040;2023-04-01T00:18:28;-2.80;99.90
12130;DHT22;6128;59.340;18.040;2023-04-01T00:20:55;-2.80;99.90
12130;DHT22;6128;59.340;18.040;2023-04-01T00:23:25;-2.90;99.90
12130;DHT22;6128;59.340;18.040;2023-04-01T00:25:52;-2.90;99.90
12130;DHT22;6128;59.340;18.040;2023-04-01T00:28:20;-2.90;99.90
12130;DHT22;6128;59.340;18.040;2023-04-01T00:30:47;-2.90;99.90
12130;DHT22;6128;59.340;18.040;2023-04-01T00:33:15;-2.90;99.90
12130;DHT22;6128;59.340;18.040;2023-04-01T00:35:43;-2.90;99.90
12130;DHT22;6128;59.340;18.040;2023-04-01T00:38:10;-2.90;99.90
12130;DHT22;6128;59.340;18.040;2023-04-01T00:40:41;-2.90;99.90
12130;DHT22;6128;59.340;18.040;2023-04-01T00:43:13;-2.90;99.90
12130;DHT22;6128;59.340;18.040;2023-04-01T00:45:42;-2.90;99.90
12130;DHT22;6128;59.340;18.040;2023-04-01T00:48:12;-2.90;99.90
12130;DHT22;6128;59.340;18.040;2023-04-01T00:50:42;-2.90;99.90
12130;DHT22;6128;59.340;18.040;2023-04-01T00:53:11;-3.00;99.90
12130;DHT22;6128;59.340;18.040;2023-04-01T00:55:45;-3.00;99.90
12130;DHT22;6128;59.340;18.040;2023-04-01T00:58:17;-3.00;99.90
12130;DHT22;6128;59.340;18.040;2023-04-01T01:00:47;-3.00;99.90
12130;DHT22;6128;59.340;18.040;2023-04-01T01:03:16;-3.00;99.90
12130;DHT22;6128;59.340;18.040;2023-04-01T01:05:58;-3.00;99.90
12130;DHT22;6128;59.340;18.040;2023-04-01T01:08:36;-3.00;99.90
12130;DHT22;6128;59.340;18.040;2023-04-01T01:11:10;-3.00;99.90
12130;DHT22;6128;59.340;18.040;2023-04-01T01:13:42;-3.10;99.90
12130;DHT22;6128;59.340;18.040;2023-04-01T01:16:14;-3.10;99.90
12130;DHT22;6128;59.340;18.040;2023-04-01T01:18:46;-3.10;99.90
12130;DHT22;6128;59.340;18.040;2023-04-01T01:21:28;-3.20;99.90
12130;DHT22;6128;59.340;18.040;2023-04-01T01:27:16;-3.20;99.90
12130;DHT22;6128;59.340;18.040;2023-04-01T01:30:11;-3.20;99.90
12130;DHT22;6128;59.340;18.040;2023-04-01T01:32:55;-3.30;99.90
12130;DHT22;6128;59.340;18.040;2023-04-01T01:35:31;-3.30;99.90
12130;DHT22;6128;59.340;18.040;2023-04-01T01:38:05;-3.30;99.90
12130;DHT22;6128;59.340;18.040;2023-04-01T01:40:34;-3.30;99.90
12130;DHT22;6128;59.340;18.040;2023-04-01T01:43:05;-3.30;99.90
12130;DHT22;6128;59.340;18.040;2023-04-01T01:45:35;-3.20;99.90
12130;DHT22;6128;59.340;18.040;2023-04-01T01:48:05;-3.20;99.90
12130;DHT22;6128;59.340;18.040;2023-04-01T01:50:35;-3.20;99.90
12130;DHT22;6128;59.340;18.040;2023-04-01T01:53:04;-3.20;99.90
12130;DHT22;6128;59.340;18.040;2023-04-01T01:55:33;-3.20;99.90
12130;DHT22;6128;59.340;18.040;2023-04-01T01:58:04;-3.20;99.90
12130;DHT22;6128;59.340;18.040;2023-04-01T02:00:33;-3.20;99.90
12130;DHT22;6128;59.340;18.040;2023-04-01T02:03:01;-3.30;99.90
12130;DHT22;6128;59.340;18.040;2023-04-01T02:05:30;-3.30;99.90
12130;DHT22;6128;59.340;18.040;2023-04-01T02:08:02;-3.30;99.90
12130;DHT22;6128;59.340;18.040;2023-04-01T02:10:35;-3.20;99.90
12130;DHT22;6128;59.340;18.040;2023-04-01T02:13:07;-3.30;99.90
12130;DHT22;6128;59.340;18.040;2023-04-01T02:15:41;-3.20;99.90
12130;DHT22;6128;59.340;18.040;2023-04-01T02:18:10;-3.20;99.90
12130;DHT22;6128;59.340;18.040;2023-04-01T02:20:38;-3.20;99.90
12130;DHT22;6128;59.340;18.040;2023-04-01T02:23:08;-3.20;99.90
12130;DHT22;6128;59.340;18.040;2023-04-01T02:25:37;-3.30;99.90
12130;DHT22;6128;59.340;18.040;2023-04-01T02:28:07;-3.30;99.90
12130;DHT22;6128;59.340;18.040;2023-04-01T02:30:37;-3.30;99.90
12130;DHT22;6128;59.340;18.040;2023-04-01T02:33:06;-3.30;99.90
12130;DHT22;6128;59.340;18.040;2023-04-01T02:35:35;-3.30;99.90
12130;DHT22;6128;59.340;18.040;2023-04-01T02:38:03;-3.30;99.90
12130;DHT22;6128;59.340;18.040;2023-04-01T02:40:43;-3.30;99.90
12130;DHT22;6128;59.340;18.040;2023-04-01T02:43:11;-3.30;99.90
12130;DHT22;6128;59.340;18.040;2023-04-01T02:45:38;-3.20;99.90
12130;DHT22;6128;59.340;18.040;2023-04-01T02:48:06;-3.30;99.90
12130;DHT22;6128;59.340;18.040;2023-04-01T02:50:33;-3.20;99.90
12130;DHT22;6128;59.340;18.040;2023-04-01T02:53:01;-3.30;99.90
12130;DHT22;6128;59.340;18.040;2023-04-01T02:55:29;-3.30;99.90
12130;DHT22;6128;59.340;18.040;2023-04-01T02:57:58;-3.20;99.90
12130;DHT22;6128;59.340;18.040;2023-04-01T03:00:25;-3.20;99.90
12130;DHT22;6128;59.340;18.040;2023-04-01T03:02:53;-3.20;99.90
12130;DHT22;6128;59.340;18.040;2023-04-01T03:05:20;-3.30;99.90
12130;DHT22;6128;59.340;18.040;2023-04-01T03:07:47;-3.20;99.90
12130;DHT22;6128;59.340;18.040;2023-04-01T03:10:14;-3.30;99.90
12130;DHT22;6128;59.340;18.040;2023-04-01T03:12:42;-3.30;99.90
12130;DHT22;6128;59.340;18.040;2023-04-01T03:15:12;-3.30;99.90
12130;DHT22;6128;59.340;18.040;2023-04-01T03:17:41;-3.30;99.90
12130;DHT22;6128;59.340;18.040;2023-04-01T03:20:09;-3.30;99.90
12130;DHT22;6128;59.340;18.040;2023-04-01T03:22:36;-3.30;99.90
12130;DHT22;6128;59.340;18.040;2023-04-01T03:25:05;-3.20;99.90
12130;DHT22;6128;59.340;18.040;2023-04-01T03:27:33;-3.30;99.90
12130;DHT22;6128;59.340;18.040;2023-04-01T03:30:01;-3.20;99.90
12130;DHT22;6128;59.340;18.040;2023-04-01T03:32:30;-3.20;99.90
12130;DHT22;6128;59.340;18.040;2023-04-01T03:34:57;-3.20;99.90
12130;DHT22;6128;59.340;18.040;2023-04-01T03:37:24;-3.20;99.90
12130;DHT22;6128;59.340;18.040;2023-04-01T03:39:51;-3.20;99.90
12130;DHT22;6128;59.340;18.040;2023-04-01T03:42:18;-3.20;99.90
12130;DHT22;6128;59.340;18.040;2023-04-01T03:44:46;-3.20;99.90
12130;DHT22;6128;59.340;18.040;2023-04-01T03:47:13;-3.20;99.90
12130;DHT22;6128;59.340;18.040;2023-04-01T03:49:47;-3.20;99.90
12130;DHT22;6128;59.340;18.040;2023-04-01T03:52:14;-3.20;99.90
12130;DHT22;6128;59.340;18.040;2023-04-01T03:54:41;-3.20;99.90
12130;DHT22;6128;59.340;18.040;2023-04-01T03:57:08;-3.20;99.90
12130;DHT22;6128;59.340;18.040;2023-04-01T03:59:35;-3.30;99.90
12130;DHT22;6128;59.340;18.040;2023-04-01T04:02:03;-3.30;99.90
12130;DHT22;6128;59.340;18.040;2023-04-01T04:04:31;-3.30;99.90
12130;DHT22;6128;59.340;18.040;2023-04-01T04:06:59;-3.20;99.90
12130;DHT22;6128;59.340;18.040;2023-04-01T04:09:26;-3.20;99.90
12130;DHT22;6128;59.340;18.040;2023-04-01T04:11:53;-3.30;99.90
12130;DHT22;6128;59.340;18.040;2023-04-01T04:14:20;-3.30;99.90
12130;DHT22;6128;59.340;18.040;2023-04-01T04:16:47;-3.30;99.90
12130;DHT22;6128;59.340;18.040;2023-04-01T04:19:15;-3.30;99.90
12130;DHT22;6128;59.340;18.040;2023-04-01T04:21:42;-3.30;99.90
12130;DHT22;6128;59.340;18.040;2023-04-01T04:24:11;-3.30;99.90
12130;DHT22;6128;59.340;18.040;2023-04-01T04:26:38;-3.30;99.90
12130;DHT22;6128;59.340;18.040;2023-04-01T04:29:05;-3.30;99.90
12130;DHT22;6128;59.340;18.040;2023-04-01T04:31:32;-3.30;99.90
12130;DHT22;6128;59.340;18.040;2023-04-01T04:34:00;-3.30;99.90
12130;DHT22;6128;59.340;18.040;2023-04-01T04:36:27;-3.20;99.90
12130;DHT22;6128;59.340;18.040;2023-04-01T04:38:55;-3.20;99.90
12130;DHT22;6128;59.340;18.040;2023-04-01T04:41:25;-3.20;99.90
12130;DHT22;6128;59.340;18.040;2023-04-01T04:43:53;-3.20;99.90
12130;DHT22;6128;59.340;18.040;2023-04-01T04:46:21;-3.20;99.90
12130;DHT22;6128;59.340;18.040;2023-04-01T04:48:48;-3.20;99.90
12130;DHT22;6128;59.340;18.040;2023-04-01T04:51:16;-3.20;99.90
12130;DHT22;6128;59.340;18.040;2023-04-01T04:53:44;-3.10;99.90
12130;DHT22;6128;59.340;18.040;2023-04-01T04:56:12;-3.10;99.90
12130;DHT22;6128;59.340;18.040;2023-04-01T04:58:40;-3.10;99.90
12130;DHT22;6128;59.340;18.040;2023-04-01T05:01:09;-3.00;99.90
12130;DHT22;6128;59.340;18.040;2023-04-01T05:03:37;-3.00;99.90
12130;DHT22;6128;59.340;18.040;2023-04-01T05:06:05;-2.90;99.90
12130;DHT22;6128;59.340;18.040;2023-04-01T05:08:33;-2.90;99.90
12130;DHT22;6128;59.340;18.040;2023-04-01T05:11:01;-2.80;99.90
12130;DHT22;6128;59.340;18.040;2023-04-01T05:13:28;-2.80;99.90
12130;DHT22;6128;59.340;18.040;2023-04-01T05:15:56;-2.70;99.90
12130;DHT22;6128;59.340;18.040;2023-04-01T05:18:24;-2.70;99.90
12130;DHT22;6128;59.340;18.040;2023-04-01T05:20:53;-2.60;99.90
12130;DHT22;6128;59.340;18.040;2023-04-01T05:23:21;-2.60;99.90
12130;DHT22;6128;59.340;18.040;2023-04-01T05:25:49;-2.60;99.90
12130;DHT22;6128;59.340;18.040;2023-04-01T05:28:19;-2.50;99.90
12130;DHT22;6128;59.340;18.040;2023-04-01T05:30:46;-2.50;99.90
12130;DHT22;6128;59.340;18.040;2023-04-01T05:33:15;-2.40;99.90
12130;DHT22;6128;59.340;18.040;2023-04-01T05:35:42;-2.40;99.90
12130;DHT22;6128;59.340;18.040;2023-04-01T05:38:09;-2.30;99.90
12130;DHT22;6128;59.340;18.040;2023-04-01T05:40:36;-2.20;99.90
12130;DHT22;6128;59.340;18.040;2023-04-01T05:43:03;-2.20;99.90
12130;DHT22;6128;59.340;18.040;2023-04-01T05:45:31;-2.20;99.90
12130;DHT22;6128;59.340;18.040;2023-04-01T05:47:59;-2.10;99.90
12130;DHT22;6128;59.340;18.040;2023-04-01T05:50:28;-2.10;99.90
12130;DHT22;6128;59.340;18.040;2023-04-01T05:52:55;-2.00;99.90
12130;DHT22;6128;59.340;18.040;2023-04-01T05:55:22;-1.90;99.90
12130;DHT22;6128;59.340;18.040;2023-04-01T05:57:49;-1.90;99.90
12130;DHT22;6128;59.340;18.040;2023-04-01T06:00:17;-1.80;99.90
12130;DHT22;6128;59.340;18.040;2023-04-01T06:02:45;-1.80;99.90
12130;DHT22;6128;59.340;18.040;2023-04-01T06:05:16;-1.70;99.90
12130;DHT22;6128;59.340;18.040;2023-04-01T06:07:45;-1.60;99.90
12130;DHT22;6128;59.340;18.040;2023-04-01T06:10:15;-1.60;99.90
12130;DHT22;6128;59.340;18.040;2023-04-01T06:12:54;-1.50;99.90
12130;DHT22;6128;59.340;18.040;2023-04-01T06:15:35;-1.40;99.90
12130;DHT22;6128;59.340;18.040;2023-04-01T06:18:27;-1.30;99.90
12130;DHT22;6128;59.340;18.040;2023-04-01T06:21:03;-1.20;99.90
12130;DHT22;6128;59.340;18.040;2023-04-01T06:23:45;-1.20;99.90
12130;DHT22;6128;59.340;18.040;2023-04-01T06:26:24;-1.10;99.90
12130;DHT22;6128;59.340;18.040;2023-04-01T06:29:18;-1.00;99.90
12130;DHT22;6128;59.340;18.040;2023-04-01T06:32:13;-0.90;99.90
12130;DHT22;6128;59.340;18.040;2023-04-01T06:35:11;-0.80;99.90
12130;DHT22;6128;59.340;18.040;2023-04-01T06:38:00;-0.70;99.90
12130;DHT22;6128;59.340;18.040;2023-04-01T06:40:50;-0.60;99.90
12130;DHT22;6128;59.340;18.040;2023-04-01T06:43:27;-0.50;99.90
12130;DHT22;6128;59.340;18.040;2023-04-01T06:46:05;-0.50;99.90
12130;DHT22;6128;59.340;18.040;2023-04-01T06:48:45;-0.40;99.90
12130;DHT22;6128;59.340;18.040;2023-04-01T06:51:23;-0.30;99.90
12130;DHT22;6128;59.340;18.040;2023-04-01T06:53:56;-0.20;99.90
12130;DHT22;6128;59.340;18.040;2023-04-01T06:56:28;0.00;99.90
12130;DHT22;6128;59.340;18.040;2023-04-01T06:58:58;0.20;99.90
12130;DHT22;6128;59.340;18.040;2023-04-01T07:01:30;0.40;99.90
12130;DHT22;6128;59.340;18.040;2023-04-01T07:04:04;0.70;99.90
12130;DHT22;6128;59.340;18.040;2023-04-01T07:06:35;1.60;99.90
12130;DHT22;6128;59.340;18.040;2023-04-01T07:09:06;2.40;99.90
12130;DHT22;6128;59.340;18.040;2023-04-01T07:11:38;3.10;99.90
12130;DHT22;6128;59.340;18.040;2023-04-01T07:14:13;3.90;99.90
12130;DHT22;6128;59.340;18.040;2023-04-01T07:16:46;4.90;99.90
12130;DHT22;6128;59.340;18.040;2023-04-01T07:19:20;5.50;99.90
12130;DHT22;6128;59.340;18.040;2023-04-01T07:21:50;5.60;99.90
12130;DHT22;6128;59.340;18.040;2023-04-01T07:24:22;5.70;99.90
12130;DHT22;6128;59.340;18.040;2023-04-01T07:26:55;6.00;99.90
12130;DHT22;6128;59.340;18.040;2023-04-01T07:29:23;6.20;99.90
12130;DHT22;6128;59.340;18.040;2023-04-01T07:32:14;6.00;99.90
12130;DHT22;6128;59.340;18.040;2023-04-01T07:34:56;6.10;99.90
12130;DHT22;6128;59.340;18.040;2023-04-01T07:37:31;6.80;99.90
12130;DHT22;6128;59.340;18.040;2023-04-01T07:40:11;7.10;99.90
12130;DHT22;6128;59.340;18.040;2023-04-01T07:42:54;7.40;99.90
12130;DHT22;6128;59.340;18.040;2023-04-01T07:45:30;7.90;99.90
12130;DHT22;6128;59.340;18.040;2023-04-01T07:48:12;8.10;99.90
12130;DHT22;6128;59.340;18.040;2023-04-01T07:50:49;7.40;99.90
12130;DHT22;6128;59.340;18.040;2023-04-01T07:53:26;6.90;99.90
12130;DHT22;6128;59.340;18.040;2023-04-01T07:56:00;6.80;99.90
12130;DHT22;6128;59.340;18.040;2023-04-01T07:58:35;6.80;99.90
12130;DHT22;6128;59.340;18.040;2023-04-01T08:01:12;7.30;99.90
12130;DHT22;6128;59.340;18.040;2023-04-01T08:03:52;7.70;99.90
12130;DHT22;6128;59.340;18.040;2023-04-01T08:06:27;7.80;99.90
12130;DHT22;6128;59.340;18.040;2023-04-01T08:09:02;7.00;99.90
12130;DHT22;6128;59.340;18.040;2023-04-01T08:11:41;6.50;99.90
12130;DHT22;6128;59.340;18.040;2023-04-01T08:14:19;5.80;99.90
12130;DHT22;6128;59.340;18.040;2023-04-01T08:16:52;5.30;99.90
12130;DHT22;6128;59.340;18.040;2023-04-01T08:19:30;5.20;99.90
12130;DHT22;6128;59.340;18.040;2023-04-01T08:22:06;5.60;99.90
12130;DHT22;6128;59.340;18.040;2023-04-01T08:24:41;6.00;99.90
12130;DHT22;6128;59.340;18.040;2023-04-01T08:27:15;6.10;99.90
12130;DHT22;6128;59.340;18.040;2023-04-01T08:29:49;6.20;99.90
12130;DHT22;6128;59.340;18.040;2023-04-01T08:32:20;6.30;99.90
12130;DHT22;6128;59.340;18.040;2023-04-01T08:34:55;6.40;99.90
12130;DHT22;6128;59.340;18.040;2023-04-01T08:37:30;6.50;99.90
12130;DHT22;6128;59.340;18.040;2023-04-01T08:40:02;6.40;
12130;DHT22;6128;59.340;18.040;2023-04-01T08:42:47;6.40;99.90
12130;DHT22;6128;59.340;18.040;2023-04-01T08:45:26;6.50;99.90
12130;DHT22;6128;59.340;18.040;2023-04-01T08:48:19;7.10;99.90
12130;DHT22;6128;59.340;18.040;2023-04-01T08:51:01;6.80;99.90
12130;DHT22;6128;59.340;18.040;2023-04-01T08:53:46;7.10;99.90
12130;DHT22;6128;59.340;18.040;2023-04-01T08:56:21;7.40;99.90
12130;DHT22;6128;59.340;18.040;2023-04-01T08:59:09;7.20;99.90
12130;DHT22;6128;59.340;18.040;2023-04-01T09:02:00;7.40;99.90
12130;DHT22;6128;59.340;18.040;2023-04-01T09:04:47;7.70;99.90
12130;DHT22;6128;59.340;18.040;2023-04-01T09:07:33;8.10;99.90
12130;DHT22;6128;59.340;18.040;2023-04-01T09:13:25;8.90;99.90
12130;DHT22;6128;59.340;18.040;2023-04-01T09:16:11;8.80;99.90
12130;DHT22;6128;59.340;18.040;2023-04-01T09:18:49;8.60;99.90
12130;DHT22;6128;59.340;18.040;2023-04-01T09:21:49;8.10;99.90
12130;DHT22;6128;59.340;18.040;2023-04-01T09:24:30;7.40;99.90
12130;DHT22;6128;59.340;18.040;2023-04-01T09:27:10;6.50;99.90
12130;DHT22;6128;59.340;18.040;2023-04-01T09:33:05;4.90;99.90
12130;DHT22;6128;59.340;18.040;2023-04-01T09:35:46;4.30;99.90
12130;DHT22;6128;59.340;18.040;2023-04-01T09:38:28;4.00;99.90
12130;DHT22;6128;59.340;18.040;2023-04-01T09:40:57;3.80;99.90
12130;DHT22;6128;59.340;18.040;2023-04-01T09:43:28;3.70;99.90
12130;DHT22;6128;59.340;18.040;2023-04-01T09:46:18;3.60;99.90
12130;DHT22;6128;59.340;18.040;2023-04-01T09:49:19;3.50;99.90
12130;DHT22;6128;59.340;18.040;2023-04-01T09:52:01;3.50;99.90
12130;DHT22;6128;59.340;18.040;2023-04-01T09:57:47;3.80;99.90
12130;DHT22;6128;59.340;18.040;2023-04-01T10:00:41;3.90;99.90
12130;DHT22;6128;59.340;18.040;2023-04-01T10:03:44;4.00;99.90
12130;DHT22;6128;59.340;18.040;2023-04-01T10:09:55;4.10;99.90
12130;DHT22;6128;59.340;18.040;2023-04-01T10:12:58;4.20;99.90
12130;DHT22;6128;59.340;18.040;2023-04-01T10:15:57;4.20;99.90
12130;DHT22;6128;59.340;18.040;2023-04-01T10:22:00;4.30;99.90
12130;DHT22;6128;59.340;18.040;2023-04-01T10:25:04;4.50;99.90
12130;DHT22;6128;59.340;18.040;2023-04-01T10:28:02;4.60;99.90
12130;DHT22;6128;59.340;18.040;2023-04-01T10:31:02;4.50;99.90
12130;DHT22;6128;59.340;18.040;2023-04-01T10:34:00;4.60;99.90
12130;DHT22;6128;59.340;18.040;2023-04-01T10:36:51;4.60;99.90
12130;DHT22;6128;59.340;18.040;2023-04-01T10:46:13;4.90;99.90
12130;DHT22;6128;59.340;18.040;2023-04-01T10:49:10;5.10;99.90
12130;DHT22;6128;59.340;18.040;2023-04-01T10:55:12;5.30;99.90
12130;DHT22;6128;59.340;18.040;2023-04-01T10:58:17;5.30;99.90
12130;DHT22;6128;59.340;18.040;2023-04-01T11:01:27;5.30;99.90
12130;DHT22;6128;59.340;18.040;2023-04-01T11:04:43;5.30;99.90
12130;DHT22;6128;59.340;18.040;2023-04-01T11:07:35;5.30;99.90
12130;DHT22;6128;59.340;18.040;2023-04-01T11:16:54;5.60;99.90
12130;DHT22;6128;59.340;18.040;2023-04-01T11:26:02;5.90;99.90
12130;DHT22;6128;59.340;18.040;2023-04-01T11:29:08;5.90;99.90
12130;DHT22;6128;59.340;18.040;2023-04-01T11:31:50;5.90;99.80
12130;DHT22;6128;59.340;18.040;2023-04-01T11:34:36;6.00;99.80
12130;DHT22;6128;59.340;18.040;2023-04-01T11:37:14;6.00;99.70
12130;DHT22;6128;59.340;18.040;2023-04-01T11:39:49;6.10;99.60
12130;DHT22;6128;59.340;18.040;2023-04-01T11:42:28;6.00;99.50
12130;DHT22;6128;59.340;18.040;2023-04-01T11:45:07;6.10;99.30
12130;DHT22;6128;59.340;18.040;2023-04-01T11:48:03;6.10;99.30
12130;DHT22;6128;59.340;18.040;2023-04-01T11:50:41;6.10;99.00
12130;DHT22;6128;59.340;18.040;2023-04-01T11:53:19;6.10;98.90
12130;DHT22;6128;59.340;18.040;2023-04-01T11:55:56;6.00;98.70
12130;DHT22;6128;59.340;18.040;2023-04-01T12:01:45;6.20;98.40
12130;DHT22;6128;59.340;18.040;2023-04-01T12:07:53;6.20;98.00
12130;DHT22;6128;59.340;18.040;2023-04-01T12:10:28;6.20;98.00
12130;DHT22;6128;59.340;18.040;2023-04-01T12:13:04;6.20;97.90
12130;DHT22;6128;59.340;18.040;2023-04-01T12:15:50;6.20;98.00
12130;DHT22;6128;59.340;18.040;2023-04-01T12:18:24;6.30;98.00
12130;DHT22;6128;59.340;18.040;2023-04-01T12:20:59;6.40;98.20
12130;DHT22;6128;59.340;18.040;2023-04-01T12:23:54;6.40;98.30
12130;DHT22;6128;59.340;18.040;2023-04-01T12:26:35;6.40;98.40
12130;DHT22;6128;59.340;18.040;2023-04-01T12:29:21;6.30;98.50
12130;DHT22;6128;59.340;18.040;2023-04-01T12:31:59;6.20;98.50
12130;DHT22;6128;59.340;18.040;2023-04-01T12:34:49;6.20;98.40
12130;DHT22;6128;59.340;18.040;2023-04-01T12:37:24;6.10;98.30
12130;DHT22;6128;59.340;18.040;2023-04-01T12:40:06;6.10;98.20
12130;DHT22;6128;59.340;18.040;2023-04-01T12:42:55;6.20;98.10
12130;DHT22;6128;59.340;18.040;2023-04-01T12:45:31;6.20;98.00
12130;DHT22;6128;59.340;18.040;2023-04-01T12:48:17;6.10;97.90
12130;DHT22;6128;59.340;18.040;2023-04-01T12:57:04;6.00;97.40
12130;DHT22;6128;59.340;18.040;2023-04-01T12:59:55;5.90;97.30
12130;DHT22;6128;59.340;18.040;2023-04-01T13:02:36;5.80;97.10
12130;DHT22;6128;59.340;18.040;2023-04-01T13:05:27;5.90;97.10
12130;DHT22;6128;59.340;18.040;2023-04-01T13:08:20;5.80;97.00
12130;DHT22;6128;59.340;18.040;2023-04-01T13:11:13;5.80;96.90
12130;DHT22;6128;59.340;18.040;2023-04-01T13:14:08;5.80;96.80
12130;DHT22;6128;59.340;18.040;2023-04-01T13:16:42;5.70;96.60
12130;DHT22;6128;59.340;18.040;2023-04-01T13:19:17;5.70;96.60
12130;DHT22;6128;59.340;18.040;2023-04-01T13:21:52;5.60;96.50
12130;DHT22;6128;59.340;18.040;2023-04-01T13:24:33;5.70;96.50
12130;DHT22;6128;59.340;18.040;2023-04-01T13:27:08;5.60;96.50
12130;DHT22;6128;59.340;18.040;2023-04-01T13:29:40;5.70;96.50
12130;DHT22;6128;59.340;18.040;2023-04-01T13:32:20;5.80;96.70
12130;DHT22;6128;59.340;18.040;2023-04-01T13:35:03;5.80;96.70
12130;DHT22;6128;59.340;18.040;2023-04-01T13:37:47;6.00;96.60
12130;DHT22;6128;59.340;18.040;2023-04-01T13:40:33;6.00;96.50
12130;DHT22;6128;59.340;18.040;2023-04-01T13:43:10;5.80;96.40
12130;DHT22;6128;59.340;18.040;2023-04-01T13:45:56;5.70;96.30
12130;DHT22;6128;59.340;18.040;2023-04-01T13:48:36;5.70;96.20
12130;DHT22;6128;59.340;18.040;2023-04-01T13:51:15;5.60;96.10
12130;DHT22;6128;59.340;18.040;2023-04-01T13:54:19;5.60;96.10
12130;DHT22;6128;59.340;18.040;2023-04-01T13:57:02;5.60;96.10
12130;DHT22;6128;59.340;18.040;2023-04-01T13:59:57;5.60;96.10
12130;DHT22;6128;59.340;18.040;2023-04-01T14:02:54;5.60;96.20
12130;DHT22;6128;59.340;18.040;2023-04-01T14:05:44;5.60;96.30
12130;DHT22;6128;59.340;18.040;2023-04-01T14:08:26;5.60;96.50
12130;DHT22;6128;59.340;18.040;2023-04-01T14:11:05;5.40;96.50
12130;DHT22;6128;59.340;18.040;2023-04-01T14:13:40;5.40;96.70
12130;DHT22;6128;59.340;18.040;2023-04-01T14:16:22;5.30;96.90
12130;DHT22;6128;59.340;18.040;2023-04-01T14:19:03;5.30;96.90
12130;DHT22;6128;59.340;18.040;2023-04-01T14:21:38;5.20;97.00
12130;DHT22;6128;59.340;18.040;2023-04-01T14:24:35;5.20;97.00
12130;DHT22;6128;59.340;18.040;2023-04-01T14:27:24;5.20;97.00
12130;DHT22;6128;59.340;18.040;2023-04-01T14:30:05;5.20;96.90
12130;DHT22;6128;59.340;18.040;2023-04-01T14:32:48;5.10;96.60
12130;DHT22;6128;59.340;18.040;2023-04-01T14:35:31;5.00;96.30
12130;DHT22;6128;59.340;18.040;2023-04-01T14:38:22;4.90;96.00
12130;DHT22;6128;59.340;18.040;2023-04-01T14:41:03;4.90;95.50
12130;DHT22;6128;59.340;18.040;2023-04-01T14:44:04;4.80;95.10
12130;DHT22;6128;59.340;18.040;2023-04-01T14:46:55;4.80;94.70
12130;DHT22;6128;59.340;18.040;2023-04-01T14:49:33;4.70;94.30
12130;DHT22;6128;59.340;18.040;2023-04-01T14:52:11;4.60;93.90
12130;DHT22;6128;59.340;18.040;2023-04-01T14:54:42;4.60;93.70
12130;DHT22;6128;59.340;18.040;2023-04-01T14:57:13;4.60;93.60
12130;DHT22;6128;59.340;18.040;2023-04-01T14:59:45;4.50;93.50
12130;DHT22;6128;59.340;18.040;2023-04-01T15:02:29;4.50;93.50
12130;DHT22;6128;59.340;18.040;2023-04-01T15:05:10;4.50;93.70
12130;DHT22;6128;59.340;18.040;2023-04-01T15:08:01;4.50;93.90
12130;DHT22;6128;59.340;18.040;2023-04-01T15:10:43;4.40;94.10
12130;DHT22;6128;59.340;18.040;2023-04-01T15:13:18;4.40;94.40
12130;DHT22;6128;59.340;18.040;2023-04-01T15:16:02;4.50;94.60
12130;DHT22;6128;59.340;18.040;2023-04-01T15:18:40;4.50;94.90
12130;DHT22;6128;59.340;18.040;2023-04-01T15:21:19;4.50;95.00
12130;DHT22;6128;59.340;18.040;2023-04-01T15:23:56;4.50;95.20
12130;DHT22;6128;59.340;18.040;2023-04-01T15:26:47;4.50;95.20
12130;DHT22;6128;59.340;18.040;2023-04-01T15:32:21;4.30;95.00
12130;DHT22;6128;59.340;18.040;2023-04-01T15:34:56;4.20;94.70
12130;DHT22;6128;59.340;18.040;2023-04-01T15:37:35;4.20;94.50
12130;DHT22;6128;59.340;18.040;2023-04-01T15:40:18;4.20;94.30
12130;DHT22;6128;59.340;18.040;2023-04-01T15:42:59;4.10;94.00
12130;DHT22;6128;59.340;18.040;2023-04-01T15:45:42;4.10;93.90
12130;DHT22;6128;59.340;18.040;2023-04-01T15:48:34;4.00;93.90
12130;DHT22;6128;59.340;18.040;2023-04-01T15:54:27;3.90;93.90
12130;DHT22;6128;59.340;18.040;2023-04-01T15:57:08;3.90;93.80
12130;DHT22;6128;59.340;18.040;2023-04-01T16:00:09;3.90;93.90
12130;DHT22;6128;59.340;18.040;2023-04-01T16:02:44;3.90;94.00
12130;DHT22;6128;59.340;18.040;2023-04-01T16:05:25;3.90;94.10
12130;DHT22;6128;59.340;18.040;2023-04-01T16:08:03;3.80;94.00
12130;DHT22;6128;59.340;18.040;2023-04-01T16:10:56;3.80;94.10
12130;DHT22;6128;59.340;18.040;2023-04-01T16:13:40;3.80;94.00
12130;DHT22;6128;59.340;18.040;2023-04-01T16:16:19;3.70;94.00
12130;DHT22;6128;59.340;18.040;2023-04-01T16:19:09;3.70;94.00
12130;DHT22;6128;59.340;18.040;2023-04-01T16:21:44;3.60;93.90
12130;DHT22;6128;59.340;18.040;2023-04-01T16:24:17;3.60;94.00
12130;DHT22;6128;59.340;18.040;2023-04-01T16:26:51;3.60;94.00
12130;DHT22;6128;59.340;18.040;2023-04-01T16:29:27;3.50;94.10
12130;DHT22;6128;59.340;18.040;2023-04-01T16:32:05;3.50;94.20
12130;DHT22;6128;59.340;18.040;2023-04-01T16:34:38;3.50;94.20
12130;DHT22;6128;59.340;18.040;2023-04-01T16:37:10;3.40;94.30
12130;DHT22;6128;59.340;18.040;2023-04-01T16:39:45;3.30;94.30
12130;DHT22;6128;59.340;18.040;2023-04-01T16:42:22;3.30;94.40
12130;DHT22;6128;59.340;18.040;2023-04-01T16:44:55;3.20;94.50
12130;DHT22;6128;59.340;18.040;2023-04-01T16:47:28;3.20;94.70
12130;DHT22;6128;59.340;18.040;2023-04-01T16:50:00;3.20;94.80
12130;DHT22;6128;59.340;18.040;2023-04-01T16:52:43;3.10;94.90
12130;DHT22;6128;59.340;18.040;2023-04-01T16:55:16;3.10;95.00
12130;DHT22;6128;59.340;18.040;2023-04-01T16:57:49;3.10;95.10
12130;DHT22;6128;59.340;18.040;2023-04-01T17:00:24;3.00;95.20
12130;DHT22;6128;59.340;18.040;2023-04-01T17:03:02;2.90;95.20
12130;DHT22;6128;59.340;18.040;2023-04-01T17:05:42;2.90;95.30
12130;DHT22;6128;59.340;18.040;2023-04-01T17:08:17;2.90;95.30
12130;DHT22;6128;59.340;18.040;2023-04-01T17:10:52;2.80;95.40
12130;DHT22;6128;59.340;18.040;2023-04-01T17:13:34;2.70;95.40
12130;DHT22;6128;59.340;18.040;2023-04-01T17:16:15;2.70;95.50
12130;DHT22;6128;59.340;18.040;2023-04-01T17:18:50;2.60;95.60
12130;DHT22;6128;59.340;18.040;2023-04-01T17:21:25;2.50;95.60
12130;DHT22;6128;59.340;18.040;2023-04-01T17:24:03;2.50;95.80
12130;DHT22;6128;59.340;18.040;2023-04-01T17:26:40;2.40;95.90
12130;DHT22;6128;59.340;18.040;2023-04-01T17:29:17;2.40;96.00
12130;DHT22;6128;59.340;18.040;2023-04-01T17:31:52;2.30;96.20
12130;DHT22;6128;59.340;18.040;2023-04-01T17:34:33;2.30;96.30
12130;DHT22;6128;59.340;18.040;2023-04-01T17:37:16;2.20;96.50
12130;DHT22;6128;59.340;18.040;2023-04-01T17:39:52;2.20;96.60
12130;DHT22;6128;59.340;18.040;2023-04-01T17:42:25;2.10;96.70